Aérodrome :
LOGIN :

S'inscrire | Disclaimer

   EN    FR    IT 

 










Légende :    VFR   VFR Marginal   IFR   IFR Intensif   IFR Très Intensif
Visi : 
Plafond : 
>= 8 km
>= 3000ft
5 à 8 km
1000 à 3000 ft
1500m à 5 km
500 à 1000 ft
800 à 1500m
200 à 500 ft
< 800m
< 200 ft
Symboles :   Orages  Brouillard  Fortes neiges  Fortes précipitations  Vent > 20 kt
SIGMETs :   Divers  Orages  Givrage  Turbulence  Onde Orograph.  Cendres Volcan.







- Altitude de l'aérodrome : 65 ft
- Code IATA : PMO


LICJ - Palermo Punta Raisi

DERNIER METAR :
  • 210850Z 02004KT 9999 FEW024 26/20 Q1021

METARs EXPIRÉS :
  • 210820Z VRB02KT 9999 FEW024 26/20 Q1021
  • 210750Z 01003KT 340V040 9999 FEW020 25/20 Q1020
  • 210720Z 27003KT 9999 R25/1400U R20/P1500N FEW002 24/20 Q1020
  • 210650Z VRB01KT CAVOK 25/20 Q1020
  • 210620Z 21004KT CAVOK 24/20 Q1020

TAF TAF LICJ
Valide du 21 à 06h jusqu'au 22 à 06h UTC


210500Z 2106/2206 VRB04KT 9999 SCT030
BECMG 2108/2110 06012KT
BECMG 2118/2120 VRB04KT
TEMPO 2203/2206 RA
Pas de NOTAMs connus pour ce terrain.



MET'MAP, la Météo Aéronautique d'un coup d'oeil ! - Copyright ORBIFLY Décembre 2007 - Disclaimer

ORBIFLY MET'MAP TEAM :

Programmation & Développement : Alexandra Zaïnal
Conception & Développement : Baudouin d'Aumeries
Co-Programmation & Développement : Marc-Olivier Méhu
Soutien technique & logistique : Manuel Goepfert

Contact : metmap@orbifly.com




SOURCES & CREDITS :

   NOAA